Time;durP1;ratioP1;P1;durP2;ratioP2;P2;SDS_P1;SDS_P2;PMS_P1;PMS_P2;Temp;Humidity;BMP_temperature;BMP_pressure;BME280_temperature;BME280_humidity;BME280_pressure;Samples;Min_cycle;Max_cycle;Signal;HPM_P1;HPM_P2
2022/12/03 00:00:05;;;;;;;9.07;6.90;;;;;;;;;;5078001;28;20206;-79
2022/12/03 00:02:31;;;;;;;9.80;7.33;;;;;;;;;;5076361;28;20184;-77
2022/12/03 00:04:58;;;;;;;10.23;7.40;;;;;;;;;;5086241;28;20225;-79
2022/12/03 00:07:24;;;;;;;10.87;8.00;;;;;;;;;;5088181;28;20211;-80
2022/12/03 00:09:50;;;;;;;10.43;7.90;;;;;;;;;;5085856;28;20181;-79
2022/12/03 00:12:16;;;;;;;11.13;7.87;;;;;;;;;;5076861;28;20175;-79
2022/12/03 00:14:43;;;;;;;10.60;7.77;;;;;;;;;;5052394;28;20177;-80
2022/12/03 00:17:09;;;;;;;11.17;8.20;;;;;;;;;;5066839;28;20188;-80
2022/12/03 00:19:35;;;;;;;10.90;7.90;;;;;;;;;;5076640;28;20230;-80
2022/12/03 00:22:01;;;;;;;10.23;7.77;;;;;;;;;;5064823;28;20181;-80
2022/12/03 00:24:27;;;;;;;11.80;8.40;;;;;;;;;;5087119;28;20200;-80
2022/12/03 00:26:54;;;;;;;11.50;8.23;;;;;;;;;;5081514;28;20211;-80
2022/12/03 00:29:20;;;;;;;11.30;7.87;;;;;;;;;;5053084;28;20225;-80
2022/12/03 00:31:46;;;;;;;11.67;8.47;;;;;;;;;;5067663;28;20201;-80
2022/12/03 00:34:13;;;;;;;11.77;8.07;;;;;;;;;;5080834;28;20263;-80
2022/12/03 00:36:40;;;;;;;12.27;8.80;;;;;;;;;;5067801;28;20204;-80
2022/12/03 00:39:06;;;;;;;9.67;7.63;;;;;;;;;;5050997;28;20192;-80
2022/12/03 00:41:33;;;;;;;10.83;8.33;;;;;;;;;;5073625;28;20203;-80
2022/12/03 00:43:59;;;;;;;12.10;8.63;;;;;;;;;;5087806;28;20222;-80
2022/12/03 00:46:25;;;;;;;12.37;9.23;;;;;;;;;;5086115;28;20211;-80
2022/12/03 00:48:51;;;;;;;13.77;9.37;;;;;;;;;;5066356;28;20200;-80
2022/12/03 00:51:17;;;;;;;13.13;9.27;;;;;;;;;;5052533;28;20869;-80
2022/12/03 00:53:43;;;;;;;13.77;8.73;;;;;;;;;;5050256;28;20235;-80
2022/12/03 00:56:09;;;;;;;12.50;8.60;;;;;;;;;;5062935;28;20185;-80
2022/12/03 00:58:36;;;;;;;13.90;9.40;;;;;;;;;;5081699;28;20725;-80
2022/12/03 01:01:02;;;;;;;13.50;9.60;;;;;;;;;;5069481;28;20195;-80
2022/12/03 01:03:28;;;;;;;12.43;9.07;;;;;;;;;;5073093;28;20798;-80
2022/12/03 01:05:54;;;;;;;13.67;9.63;;;;;;;;;;5089813;28;20842;-81
2022/12/03 01:08:21;;;;;;;12.37;8.90;;;;;;;;;;5056801;28;20216;-80
2022/12/03 01:10:47;;;;;;;12.90;9.23;;;;;;;;;;5073746;28;20180;-80
2022/12/03 01:13:13;;;;;;;13.23;9.60;;;;;;;;;;5056059;28;20189;-78
2022/12/03 01:15:40;;;;;;;14.80;10.03;;;;;;;;;;5054717;28;20187;-79
2022/12/03 01:18:06;;;;;;;14.43;9.47;;;;;;;;;;5073441;28;20325;-79
2022/12/03 01:20:35;;;;;;;12.83;8.80;;;;;;;;;;5084865;28;20583;-80
2022/12/03 01:23:01;;;;;;;12.83;8.93;;;;;;;;;;5070482;28;20329;-81
2022/12/03 01:25:27;;;;;;;13.43;9.20;;;;;;;;;;5069705;28;20196;-81
2022/12/03 01:27:53;;;;;;;14.27;9.53;;;;;;;;;;5096702;28;20223;-79
2022/12/03 01:30:19;;;;;;;14.03;9.77;;;;;;;;;;5087565;28;20181;-80
2022/12/03 01:32:46;;;;;;;15.90;10.83;;;;;;;;;;5088450;28;20263;-80
2022/12/03 01:35:12;;;;;;;15.87;10.60;;;;;;;;;;5084097;28;20176;-78
2022/12/03 01:37:38;;;;;;;15.97;10.67;;;;;;;;;;5086775;28;20290;-80
2022/12/03 01:40:06;;;;;;;15.20;10.20;;;;;;;;;;5080713;28;20793;-80
2022/12/03 01:42:35;;;;;;;13.97;10.10;;;;;;;;;;5093385;28;20189;-80
2022/12/03 01:45:01;;;;;;;14.43;10.10;;;;;;;;;;5067556;28;20189;-80
2022/12/03 01:47:30;;;;;;;15.17;10.53;;;;;;;;;;5082922;28;20882;-80
2022/12/03 01:50:00;;;;;;;16.73;11.60;;;;;;;;;;5077982;28;20184;-79
2022/12/03 01:52:28;;;;;;;15.60;10.83;;;;;;;;;;5067100;28;20189;-81
2022/12/03 01:55:00;;;;;;;13.97;9.87;;;;;;;;;;5077010;28;20204;-80
2022/12/03 01:57:26;;;;;;;15.27;10.63;;;;;;;;;;5068083;28;20208;-78
2022/12/03 01:59:53;;;;;;;14.33;9.97;;;;;;;;;;5078749;28;20292;-80
2022/12/03 02:02:22;;;;;;;14.23;10.07;;;;;;;;;;5096145;28;20187;-79
2022/12/03 02:04:48;;;;;;;16.30;11.07;;;;;;;;;;5071293;28;20211;-79
2022/12/03 02:07:18;;;;;;;16.40;10.97;;;;;;;;;;5076906;28;20212;-80
2022/12/03 02:09:44;;;;;;;16.80;11.93;;;;;;;;;;5092078;28;20192;-80
2022/12/03 02:12:11;;;;;;;17.93;11.53;;;;;;;;;;5059757;28;20272;-80
2022/12/03 02:14:37;;;;;;;17.43;11.40;;;;;;;;;;5096624;28;20257;-81
2022/12/03 02:17:03;;;;;;;16.63;11.03;;;;;;;;;;5089347;28;20196;-80
2022/12/03 02:19:29;;;;;;;17.87;12.03;;;;;;;;;;5076660;28;20195;-80
2022/12/03 02:22:03;;;;;;;20.20;12.93;;;;;;;;;;5072636;28;20222;-80
2022/12/03 02:24:38;;;;;;;18.97;12.40;;;;;;;;;;5074586;28;20268;-80
2022/12/03 02:27:04;;;;;;;17.87;11.77;;;;;;;;;;5070349;28;20241;-80
2022/12/03 02:29:30;;;;;;;18.43;11.97;;;;;;;;;;5070663;28;20204;-80
2022/12/03 02:31:57;;;;;;;15.90;11.17;;;;;;;;;;5077428;28;20184;-80
2022/12/03 02:34:33;;;;;;;18.67;11.80;;;;;;;;;;5069587;28;20187;-81
2022/12/03 02:37:00;;;;;;;17.70;12.00;;;;;;;;;;5080931;28;20195;-77
2022/12/03 02:39:27;;;;;;;20.40;12.60;;;;;;;;;;5080041;28;20181;-79
2022/12/03 02:44:38;;;;;;;18.90;12.13;;;;;;;;;;5083659;28;20273;-79
2022/12/03 02:47:04;;;;;;;17.87;12.03;;;;;;;;;;5077156;28;20219;-79
2022/12/03 02:49:31;;;;;;;20.53;13.20;;;;;;;;;;5072917;28;20271;-79
2022/12/03 02:51:57;;;;;;;19.77;12.73;;;;;;;;;;5057687;28;20648;-77
2022/12/03 02:54:23;;;;;;;20.07;12.70;;;;;;;;;;5059901;28;20189;-80
2022/12/03 02:56:50;;;;;;;19.80;13.20;;;;;;;;;;5059736;28;20189;-80
2022/12/03 02:59:16;;;;;;;22.10;12.97;;;;;;;;;;5090425;28;20200;-80
2022/12/03 03:01:42;;;;;;;20.20;13.20;;;;;;;;;;5079334;28;20232;-80
2022/12/03 03:04:09;;;;;;;18.43;12.57;;;;;;;;;;5074484;28;20185;-79
2022/12/03 03:06:35;;;;;;;19.67;12.73;;;;;;;;;;5075259;28;20270;-80
2022/12/03 03:09:02;;;;;;;21.20;13.17;;;;;;;;;;5063736;28;20203;-80
2022/12/03 03:11:29;;;;;;;17.00;11.60;;;;;;;;;;5072158;28;20179;-80
2022/12/03 03:13:55;;;;;;;19.23;12.50;;;;;;;;;;5074125;28;20177;-79
2022/12/03 03:16:21;;;;;;;20.80;13.77;;;;;;;;;;5082391;28;20552;-79
2022/12/03 03:18:47;;;;;;;18.80;12.27;;;;;;;;;;5095411;28;20197;-78
2022/12/03 03:21:13;;;;;;;21.37;13.63;;;;;;;;;;5095162;28;20169;-80
2022/12/03 03:23:39;;;;;;;20.87;12.77;;;;;;;;;;5049979;28;20271;-80
2022/12/03 03:26:07;;;;;;;18.30;12.33;;;;;;;;;;5075148;28;20215;-80
2022/12/03 03:28:38;;;;;;;19.70;12.87;;;;;;;;;;5074650;28;20208;-80
2022/12/03 03:31:05;;;;;;;18.50;12.30;;;;;;;;;;5079221;28;20188;-80
2022/12/03 03:33:32;;;;;;;20.87;13.27;;;;;;;;;;5072537;28;20187;-79
2022/12/03 03:35:59;;;;;;;20.57;12.83;;;;;;;;;;5089956;28;20495;-80
2022/12/03 03:38:26;;;;;;;20.47;13.20;;;;;;;;;;5080962;28;20201;-77
2022/12/03 03:40:53;;;;;;;20.70;12.93;;;;;;;;;;5078157;28;20184;-79
2022/12/03 03:43:20;;;;;;;18.50;11.87;;;;;;;;;;5077579;28;20211;-80
2022/12/03 03:45:46;;;;;;;19.57;12.20;;;;;;;;;;5039660;28;20177;-80
2022/12/03 03:48:13;;;;;;;18.77;12.77;;;;;;;;;;5087326;28;20586;-80
2022/12/03 03:50:40;;;;;;;19.17;12.40;;;;;;;;;;5088562;28;20531;-80
2022/12/03 03:53:06;;;;;;;19.07;12.53;;;;;;;;;;5068674;28;20242;-81
2022/12/03 03:55:33;;;;;;;18.80;12.47;;;;;;;;;;5074170;28;20186;-78
2022/12/03 03:57:59;;;;;;;20.77;13.23;;;;;;;;;;5065296;28;20615;-80
2022/12/03 04:00:26;;;;;;;19.30;12.37;;;;;;;;;;5074303;28;20684;-80
2022/12/03 04:02:53;;;;;;;23.47;14.30;;;;;;;;;;5077246;28;20307;-78
2022/12/03 04:05:22;;;;;;;22.57;13.60;;;;;;;;;;5088022;28;20169;-80
2022/12/03 04:07:48;;;;;;;18.77;12.50;;;;;;;;;;5090341;28;20584;-80
2022/12/03 04:13:01;;;;;;;19.30;12.53;;;;;;;;;;5099659;28;20639;-80
2022/12/03 04:15:27;;;;;;;20.83;13.00;;;;;;;;;;5094274;28;20270;-78
2022/12/03 04:20:40;;;;;;;18.90;12.27;;;;;;;;;;5082238;28;20358;-80
2022/12/03 04:23:07;;;;;;;19.43;12.83;;;;;;;;;;5084922;28;20188;-80
2022/12/03 04:35:41;;;;;;;20.83;13.27;;;;;;;;;;5075545;28;20175;-80
2022/12/03 04:36:36;;;;;;;20.20;12.83;;;;;;;;;;5055493;28;20192;-78
2022/12/03 04:39:02;;;;;;;23.43;14.07;;;;;;;;;;5076280;28;20196;-79
2022/12/03 04:41:28;;;;;;;22.23;13.93;;;;;;;;;;5074993;28;20272;-81
2022/12/03 04:46:39;;;;;;;20.77;12.97;;;;;;;;;;5094659;28;20185;-79
2022/12/03 04:49:05;;;;;;;20.97;13.17;;;;;;;;;;5073042;28;20208;-79
2022/12/03 04:51:31;;;;;;;22.50;14.10;;;;;;;;;;5072036;28;20233;-80
2022/12/03 04:53:57;;;;;;;22.13;13.80;;;;;;;;;;5075273;28;20208;-80
2022/12/03 04:56:24;;;;;;;21.00;13.37;;;;;;;;;;5085380;28;20296;-80
2022/12/03 04:58:50;;;;;;;21.60;13.30;;;;;;;;;;5077316;28;20205;-80
2022/12/03 05:01:16;;;;;;;21.15;14.85;;;;;;;;;;5079286;28;20425;-80
2022/12/03 05:03:42;;;;;;;20.77;14.03;;;;;;;;;;5074291;28;20184;-80
2022/12/03 05:06:08;;;;;;;21.70;12.97;;;;;;;;;;5051769;28;20192;-80
2022/12/03 05:08:34;;;;;;;23.20;14.17;;;;;;;;;;5071928;28;20208;-79
2022/12/03 05:11:00;;;;;;;20.33;12.70;;;;;;;;;;5066772;28;20188;-80
2022/12/03 05:13:27;;;;;;;20.93;13.27;;;;;;;;;;5094988;28;20181;-80
2022/12/03 05:15:53;;;;;;;25.20;14.90;;;;;;;;;;5079327;28;20193;-81
2022/12/03 05:18:19;;;;;;;25.47;15.17;;;;;;;;;;5082822;28;20212;-80
2022/12/03 05:20:45;;;;;;;22.80;13.80;;;;;;;;;;5098415;28;20704;-80
2022/12/03 05:23:12;;;;;;;22.00;14.23;;;;;;;;;;5104156;28;20195;-80
2022/12/03 05:25:39;;;;;;;22.53;13.83;;;;;;;;;;5074379;28;20227;-78
2022/12/03 05:28:06;;;;;;;21.40;13.37;;;;;;;;;;5095827;28;20677;-80
2022/12/03 05:30:32;;;;;;;23.37;14.43;;;;;;;;;;5062871;28;20266;-80
2022/12/03 05:32:59;;;;;;;19.77;12.67;;;;;;;;;;5077988;28;20183;-80
2022/12/03 05:35:25;;;;;;;22.50;14.23;;;;;;;;;;5086609;28;20180;-80
2022/12/03 05:37:52;;;;;;;22.60;13.87;;;;;;;;;;5081042;28;20279;-80
2022/12/03 05:40:18;;;;;;;24.10;14.67;;;;;;;;;;5066795;28;20192;-81
2022/12/03 05:42:53;;;;;;;22.73;14.53;;;;;;;;;;5056709;28;20202;-79
2022/12/03 05:45:27;;;;;;;24.03;14.70;;;;;;;;;;5079097;28;20872;-80
2022/12/03 05:47:53;;;;;;;22.43;14.03;;;;;;;;;;5091013;28;20235;-80
2022/12/03 05:50:21;;;;;;;24.47;15.37;;;;;;;;;;5087542;28;20284;-80
2022/12/03 05:52:47;;;;;;;26.80;15.63;;;;;;;;;;5093915;28;20597;-80
2022/12/03 05:55:14;;;;;;;24.33;14.30;;;;;;;;;;5074833;28;20181;-80
2022/12/03 05:57:40;;;;;;;24.30;15.13;;;;;;;;;;5072700;28;20270;-80
2022/12/03 06:00:08;;;;;;;24.27;13.97;;;;;;;;;;5083391;28;20861;-77
2022/12/03 06:02:44;;;;;;;23.50;14.83;;;;;;;;;;5070909;28;20195;-80
2022/12/03 06:05:11;;;;;;;27.80;16.50;;;;;;;;;;5072376;28;20207;-80
2022/12/03 06:07:37;;;;;;;27.37;15.97;;;;;;;;;;5054149;28;20209;-80
2022/12/03 06:10:04;;;;;;;25.27;14.93;;;;;;;;;;5052295;28;20267;-80
2022/12/03 06:12:31;;;;;;;26.77;15.80;;;;;;;;;;5083231;28;20184;-78
2022/12/03 06:14:58;;;;;;;27.60;16.87;;;;;;;;;;5081904;28;20795;-78
2022/12/03 06:17:24;;;;;;;25.37;15.60;;;;;;;;;;5077111;28;20200;-80
2022/12/03 06:19:51;;;;;;;25.40;15.23;;;;;;;;;;5054224;28;20236;-78
2022/12/03 06:22:17;;;;;;;27.07;15.57;;;;;;;;;;5062190;28;20271;-80
2022/12/03 06:24:43;;;;;;;27.00;15.80;;;;;;;;;;5065871;28;20180;-80
2022/12/03 06:27:09;;;;;;;33.77;18.60;;;;;;;;;;5066224;28;20216;-78
2022/12/03 06:29:35;;;;;;;36.67;19.87;;;;;;;;;;5092328;28;20173;-78
2022/12/03 06:32:03;;;;;;;35.63;19.27;;;;;;;;;;5092455;28;20184;-79
2022/12/03 06:34:29;;;;;;;39.23;19.80;;;;;;;;;;5090963;28;20185;-80
2022/12/03 06:36:55;;;;;;;32.73;17.97;;;;;;;;;;5070764;28;20212;-80
2022/12/03 06:39:21;;;;;;;27.70;16.30;;;;;;;;;;5058765;28;20212;-79
2022/12/03 06:41:47;;;;;;;30.03;17.17;;;;;;;;;;5064140;28;20223;-80
2022/12/03 06:44:14;;;;;;;28.63;16.23;;;;;;;;;;5082658;28;20176;-80
2022/12/03 06:46:40;;;;;;;31.87;18.33;;;;;;;;;;5088849;28;20656;-80
2022/12/03 06:49:08;;;;;;;32.20;17.53;;;;;;;;;;5076601;28;20573;-78
2022/12/03 06:51:34;;;;;;;28.67;17.00;;;;;;;;;;5077222;28;20176;-80
2022/12/03 06:54:01;;;;;;;27.30;16.23;;;;;;;;;;5071705;28;20193;-78
2022/12/03 06:56:27;;;;;;;27.07;15.73;;;;;;;;;;5094493;28;20176;-80
2022/12/03 06:58:53;;;;;;;29.83;16.87;;;;;;;;;;5065705;28;20214;-79
2022/12/03 07:01:20;;;;;;;27.60;16.90;;;;;;;;;;5082836;28;20191;-80
2022/12/03 07:03:46;;;;;;;27.07;15.10;;;;;;;;;;5079724;28;20207;-80
2022/12/03 07:06:12;;;;;;;30.03;17.70;;;;;;;;;;5059694;28;20181;-80
2022/12/03 07:08:38;;;;;;;27.03;16.37;;;;;;;;;;5055991;28;20236;-79
2022/12/03 07:11:29;;;;;;;29.07;16.80;;;;;;;;;;5092655;28;20183;-81
2022/12/03 07:13:51;;;;;;;24.70;14.73;;;;;;;;;;5077924;28;20194;-80
2022/12/03 07:16:17;;;;;;;28.13;16.43;;;;;;;;;;5076895;28;20173;-79
2022/12/03 07:18:43;;;;;;;27.53;16.13;;;;;;;;;;5057635;28;20208;-80
2022/12/03 07:21:09;;;;;;;26.43;15.37;;;;;;;;;;5066354;28;20175;-80
2022/12/03 07:23:36;;;;;;;23.57;15.40;;;;;;;;;;5089736;28;20604;-80
2022/12/03 07:26:02;;;;;;;25.77;15.90;;;;;;;;;;5075394;28;20203;-80
2022/12/03 07:28:28;;;;;;;28.77;16.13;;;;;;;;;;5060676;28;20215;-80
2022/12/03 07:30:54;;;;;;;27.63;16.20;;;;;;;;;;5073183;28;20298;-80
2022/12/03 07:33:20;;;;;;;27.07;15.87;;;;;;;;;;5081710;28;20176;-79
2022/12/03 07:35:46;;;;;;;25.53;15.00;;;;;;;;;;5092274;28;20176;-79
2022/12/03 07:38:12;;;;;;;26.90;16.37;;;;;;;;;;5072728;28;20208;-79
2022/12/03 07:40:39;;;;;;;28.87;16.47;;;;;;;;;;5080913;28;20180;-79
2022/12/03 07:43:05;;;;;;;27.87;16.93;;;;;;;;;;5082844;28;20183;-79
2022/12/03 07:45:31;;;;;;;29.37;16.90;;;;;;;;;;5078034;28;20180;-80
2022/12/03 07:47:57;;;;;;;27.90;16.87;;;;;;;;;;5094143;28;20307;-80
2022/12/03 07:50:27;;;;;;;30.13;17.77;;;;;;;;;;5084464;28;20262;-80
2022/12/03 07:52:53;;;;;;;30.30;18.17;;;;;;;;;;5069068;28;20188;-80
2022/12/03 07:55:20;;;;;;;31.00;18.53;;;;;;;;;;5083559;28;20219;-79
2022/12/03 07:57:46;;;;;;;29.67;18.33;;;;;;;;;;5078324;28;21192;-82
2022/12/03 08:00:14;;;;;;;30.60;18.37;;;;;;;;;;5075387;28;20272;-79
2022/12/03 08:02:40;;;;;;;30.13;18.50;;;;;;;;;;5066812;28;20960;-79
2022/12/03 08:05:07;;;;;;;28.73;17.17;;;;;;;;;;5080275;28;21116;-79
2022/12/03 08:07:33;;;;;;;28.63;16.50;;;;;;;;;;5080266;28;20208;-80
2022/12/03 08:09:59;;;;;;;30.40;17.57;;;;;;;;;;5066980;28;20676;-80
2022/12/03 08:12:39;;;;;;;28.30;17.53;;;;;;;;;;5087180;28;20172;-79
2022/12/03 08:15:16;;;;;;;29.43;16.97;;;;;;;;;;5052480;28;20202;-79
2022/12/03 08:17:43;;;;;;;28.07;16.17;;;;;;;;;;5071368;28;20196;-79
2022/12/03 08:20:16;;;;;;;26.70;15.47;;;;;;;;;;5076045;28;20672;-80
2022/12/03 08:22:43;;;;;;;25.00;15.50;;;;;;;;;;5078393;28;20203;-79
2022/12/03 08:25:13;;;;;;;26.93;15.67;;;;;;;;;;5048201;28;20617;-79
2022/12/03 08:27:39;;;;;;;28.80;17.70;;;;;;;;;;5064768;28;20679;-79
2022/12/03 08:30:06;;;;;;;25.67;16.20;;;;;;;;;;5074558;28;20835;-80
2022/12/03 08:32:32;;;;;;;29.93;17.13;;;;;;;;;;5075534;28;20184;-80
2022/12/03 08:35:00;;;;;;;28.03;17.23;;;;;;;;;;5081161;28;20193;-80
2022/12/03 08:37:29;;;;;;;29.23;17.20;;;;;;;;;;5082192;28;20192;-80
2022/12/03 08:39:55;;;;;;;29.30;18.37;;;;;;;;;;5073899;28;20550;-80
2022/12/03 08:42:41;;;;;;;30.53;18.43;;;;;;;;;;5070146;28;20667;-80
2022/12/03 08:45:27;;;;;;;31.20;17.23;;;;;;;;;;5066883;28;20262;-80
2022/12/03 08:48:05;;;;;;;30.67;17.80;;;;;;;;;;5081543;28;20211;-80
2022/12/03 08:50:33;;;;;;;32.20;18.17;;;;;;;;;;5087942;28;20646;-79
2022/12/03 08:53:19;;;;;;;27.90;17.10;;;;;;;;;;5079878;28;20179;-80
2022/12/03 08:55:47;;;;;;;28.60;17.33;;;;;;;;;;5071186;28;20183;-79
2022/12/03 08:58:24;;;;;;;28.13;18.07;;;;;;;;;;5081007;28;20201;-79
2022/12/03 09:00:54;;;;;;;28.07;17.60;;;;;;;;;;5061365;28;20214;-80
2022/12/03 09:03:20;;;;;;;27.73;16.93;;;;;;;;;;5091873;28;20186;-80
2022/12/03 09:05:47;;;;;;;26.90;16.67;;;;;;;;;;5099612;28;20232;-80
2022/12/03 09:08:13;;;;;;;28.37;16.90;;;;;;;;;;5094533;28;20204;-80
2022/12/03 09:10:39;;;;;;;28.10;16.57;;;;;;;;;;5070041;28;20185;-80
2022/12/03 09:13:05;;;;;;;28.20;17.70;;;;;;;;;;5068575;28;20229;-80
2022/12/03 09:15:31;;;;;;;25.93;16.53;;;;;;;;;;5065267;28;20691;-80
2022/12/03 09:17:57;;;;;;;29.87;17.60;;;;;;;;;;5086579;28;20200;-80
2022/12/03 09:20:24;;;;;;;31.07;17.87;;;;;;;;;;5084368;28;20184;-80
2022/12/03 09:22:50;;;;;;;26.73;16.13;;;;;;;;;;5069385;28;20177;-80
2022/12/03 09:25:16;;;;;;;27.73;17.07;;;;;;;;;;5067836;28;20241;-80
2022/12/03 09:27:42;;;;;;;27.50;16.27;;;;;;;;;;5090350;28;20239;-81
2022/12/03 09:30:09;;;;;;;25.40;16.20;;;;;;;;;;5079890;28;20223;-78
2022/12/03 09:32:35;;;;;;;29.93;17.70;;;;;;;;;;5049947;28;20192;-77
2022/12/03 09:35:02;;;;;;;29.13;17.93;;;;;;;;;;5084749;28;20168;-77
2022/12/03 09:37:28;;;;;;;27.97;17.10;;;;;;;;;;5078251;28;20197;-76
2022/12/03 09:39:54;;;;;;;26.97;16.33;;;;;;;;;;5067877;28;20729;-79
2022/12/03 09:42:20;;;;;;;26.77;16.97;;;;;;;;;;5059797;28;20200;-82
2022/12/03 09:44:47;;;;;;;25.67;15.77;;;;;;;;;;5071717;28;20192;-76
2022/12/03 09:47:13;;;;;;;26.07;16.70;;;;;;;;;;5070690;28;20295;-76
2022/12/03 09:49:39;;;;;;;25.93;16.30;;;;;;;;;;5066798;28;20259;-76
2022/12/03 09:52:05;;;;;;;25.83;17.13;;;;;;;;;;5088955;28;20179;-77
2022/12/03 09:54:32;;;;;;;26.13;16.50;;;;;;;;;;5085271;28;20226;-76
2022/12/03 09:56:59;;;;;;;27.40;16.60;;;;;;;;;;5087083;28;20191;-80
2022/12/03 09:59:27;;;;;;;27.10;16.73;;;;;;;;;;5083150;28;20203;-76
2022/12/03 10:01:53;;;;;;;23.00;15.23;;;;;;;;;;5089098;28;20176;-76
2022/12/03 10:04:20;;;;;;;27.17;16.43;;;;;;;;;;5084557;28;20191;-77
2022/12/03 10:06:46;;;;;;;27.97;16.67;;;;;;;;;;5066384;28;20184;-76
2022/12/03 10:09:15;;;;;;;28.00;17.73;;;;;;;;;;5095664;28;20204;-76
2022/12/03 10:11:42;;;;;;;28.27;17.57;;;;;;;;;;5087826;28;20659;-75
2022/12/03 10:14:11;;;;;;;29.73;18.27;;;;;;;;;;5091031;28;20845;-76
2022/12/03 10:16:39;;;;;;;30.23;17.90;;;;;;;;;;5063147;28;20186;-76
2022/12/03 10:19:05;;;;;;;27.47;17.00;;;;;;;;;;5095748;28;20203;-75
2022/12/03 10:21:34;;;;;;;28.23;16.23;;;;;;;;;;5089002;28;20192;-76
2022/12/03 10:24:19;;;;;;;29.33;16.97;;;;;;;;;;5074469;28;20184;-76
2022/12/03 10:26:46;;;;;;;29.30;18.97;;;;;;;;;;5072486;28;20219;-76
2022/12/03 10:29:13;;;;;;;27.83;16.73;;;;;;;;;;5086272;28;20211;-76
2022/12/03 10:31:39;;;;;;;28.53;17.57;;;;;;;;;;5089270;28;20271;-76
2022/12/03 10:34:05;;;;;;;28.23;17.70;;;;;;;;;;5067344;28;20206;-76
2022/12/03 10:36:32;;;;;;;28.93;17.77;;;;;;;;;;5091517;28;20660;-76
2022/12/03 10:39:10;;;;;;;28.23;17.97;;;;;;;;;;5071270;28;20574;-76
2022/12/03 10:41:37;;;;;;;27.53;16.37;;;;;;;;;;5084594;28;20180;-77
2022/12/03 10:44:11;;;;;;;28.97;17.40;;;;;;;;;;5086040;28;20177;-75
2022/12/03 10:46:37;;;;;;;31.10;18.70;;;;;;;;;;5081680;28;20180;-76
2022/12/03 10:49:09;;;;;;;26.10;16.37;;;;;;;;;;5078996;28;20216;-76
2022/12/03 10:51:36;;;;;;;25.77;15.87;;;;;;;;;;5059959;28;20793;-76
2022/12/03 10:54:02;;;;;;;26.27;16.70;;;;;;;;;;5082235;28;20188;-76
2022/12/03 10:56:28;;;;;;;29.27;18.00;;;;;;;;;;5077101;28;20188;-77
2022/12/03 10:58:55;;;;;;;29.60;17.97;;;;;;;;;;5078756;28;21439;-75
2022/12/03 11:01:22;;;;;;;31.00;18.40;;;;;;;;;;5080711;28;20676;-74
2022/12/03 11:03:48;;;;;;;29.40;18.30;;;;;;;;;;5084058;28;20676;-75
2022/12/03 11:06:15;;;;;;;31.10;18.03;;;;;;;;;;5046252;28;20275;-76
2022/12/03 11:08:43;;;;;;;30.13;18.97;;;;;;;;;;5072048;28;20219;-76
2022/12/03 11:11:20;;;;;;;30.17;18.80;;;;;;;;;;5088047;28;20179;-76
2022/12/03 11:13:46;;;;;;;31.17;18.40;;;;;;;;;;5082631;28;20177;-76
2022/12/03 11:16:12;;;;;;;34.67;19.03;;;;;;;;;;5088681;28;20176;-76
2022/12/03 11:18:39;;;;;;;32.20;17.70;;;;;;;;;;5086272;28;20727;-76
2022/12/03 11:21:14;;;;;;;29.13;17.47;;;;;;;;;;5080763;28;20181;-75
2022/12/03 11:23:46;;;;;;;29.43;18.27;;;;;;;;;;5086946;28;20179;-79
2022/12/03 11:26:13;;;;;;;31.40;18.10;;;;;;;;;;5088250;28;20204;-77
2022/12/03 11:28:45;;;;;;;29.93;17.77;;;;;;;;;;5082665;28;20723;-77
2022/12/03 11:31:30;;;;;;;31.10;17.67;;;;;;;;;;5069835;28;20181;-78
2022/12/03 11:34:22;;;;;;;30.30;17.83;;;;;;;;;;5077963;28;20263;-80
2022/12/03 11:37:07;;;;;;;30.23;17.33;;;;;;;;;;5068445;28;20203;-79
2022/12/03 11:39:51;;;;;;;32.30;18.30;;;;;;;;;;5085295;28;20553;-77
2022/12/03 11:42:26;;;;;;;31.30;17.83;;;;;;;;;;5090700;28;20717;-77
2022/12/03 11:45:04;;;;;;;30.33;17.77;;;;;;;;;;5086417;28;20180;-80
2022/12/03 11:47:37;;;;;;;33.70;19.00;;;;;;;;;;5070711;28;20206;-81
2022/12/03 11:50:20;;;;;;;31.57;18.93;;;;;;;;;;5073035;28;20175;-82
2022/12/03 11:52:48;;;;;;;30.27;18.23;;;;;;;;;;5089324;28;20238;-82
2022/12/03 11:55:30;;;;;;;32.03;18.60;;;;;;;;;;5068390;28;20173;-83
2022/12/03 11:57:57;;;;;;;30.43;18.20;;;;;;;;;;5085369;28;20204;-81
2022/12/03 12:00:24;;;;;;;32.13;18.93;;;;;;;;;;5080840;28;20188;-81
2022/12/03 12:02:51;;;;;;;32.13;18.53;;;;;;;;;;5066980;28;20201;-83
2022/12/03 12:05:20;;;;;;;31.50;18.63;;;;;;;;;;5076803;28;20560;-83
2022/12/03 12:07:46;;;;;;;33.17;18.70;;;;;;;;;;5085024;28;20227;-83
2022/12/03 12:10:33;;;;;;;34.53;20.07;;;;;;;;;;5081073;28;20640;-86
2022/12/03 12:12:59;;;;;;;33.07;18.50;;;;;;;;;;5076822;28;20195;-82
2022/12/03 12:15:32;;;;;;;30.47;18.70;;;;;;;;;;5092687;28;20202;-84
2022/12/03 12:18:17;;;;;;;33.60;19.00;;;;;;;;;;5077300;28;20219;-83
2022/12/03 12:20:44;;;;;;;33.90;19.67;;;;;;;;;;5086175;28;20180;-81
2022/12/03 12:23:21;;;;;;;32.40;19.00;;;;;;;;;;5069518;28;20539;-81
2022/12/03 12:25:49;;;;;;;35.27;19.63;;;;;;;;;;5101472;28;20755;-80
2022/12/03 12:28:15;;;;;;;33.47;19.43;;;;;;;;;;5092970;28;20702;-78
2022/12/03 12:30:41;;;;;;;33.60;18.97;;;;;;;;;;5091176;28;20626;-78
2022/12/03 12:33:13;;;;;;;33.97;19.17;;;;;;;;;;5082922;28;20180;-78
2022/12/03 12:35:40;;;;;;;32.00;18.57;;;;;;;;;;5070496;28;20165;-82
2022/12/03 12:38:06;;;;;;;35.87;19.93;;;;;;;;;;5090368;28;20205;-82
2022/12/03 12:40:34;;;;;;;33.17;18.70;;;;;;;;;;5065316;28;20220;-82
2022/12/03 12:43:01;;;;;;;33.80;19.00;;;;;;;;;;5078187;28;20180;-79
2022/12/03 12:45:29;;;;;;;31.73;18.47;;;;;;;;;;5089190;28;20276;-79
2022/12/03 12:48:14;;;;;;;32.00;18.57;;;;;;;;;;5061757;28;20204;-80
2022/12/03 12:50:47;;;;;;;31.97;18.23;;;;;;;;;;5061547;28;20188;-79
2022/12/03 12:53:25;;;;;;;31.37;18.37;;;;;;;;;;5053647;28;20180;-79
2022/12/03 12:56:01;;;;;;;32.87;19.23;;;;;;;;;;5079736;28;20177;-80
2022/12/03 12:58:30;;;;;;;30.37;18.87;;;;;;;;;;5079862;28;20295;-80
2022/12/03 13:00:59;;;;;;;32.20;19.10;;;;;;;;;;5059427;28;20632;-80
2022/12/03 13:03:32;;;;;;;30.80;19.17;;;;;;;;;;5065966;28;20203;-80
2022/12/03 13:05:58;;;;;;;33.37;19.60;;;;;;;;;;5077676;28;20185;-79
2022/12/03 13:08:29;;;;;;;28.03;17.20;;;;;;;;;;5080521;28;20731;-81
2022/12/03 13:11:02;;;;;;;31.93;18.17;;;;;;;;;;5054559;28;20214;-79
2022/12/03 13:13:39;;;;;;;30.40;18.53;;;;;;;;;;5069286;28;20189;-76
2022/12/03 13:16:09;;;;;;;30.93;17.97;;;;;;;;;;5067241;28;20263;-78
2022/12/03 13:18:47;;;;;;;30.63;17.93;;;;;;;;;;5068830;28;20254;-75
2022/12/03 13:21:16;;;;;;;35.20;19.47;;;;;;;;;;5057310;28;20240;-75
2022/12/03 13:23:42;;;;;;;32.27;18.87;;;;;;;;;;5068147;28;20193;-74
2022/12/03 13:26:21;;;;;;;31.13;19.37;;;;;;;;;;5055550;28;20207;-74
2022/12/03 13:28:48;;;;;;;31.87;19.23;;;;;;;;;;5058829;28;20705;-74
2022/12/03 13:31:20;;;;;;;28.40;17.43;;;;;;;;;;5079541;28;20267;-75
2022/12/03 13:33:47;;;;;;;32.07;18.93;;;;;;;;;;5080641;28;20640;-77
2022/12/03 13:36:14;;;;;;;30.77;18.57;;;;;;;;;;5080935;28;20177;-77
2022/12/03 13:38:41;;;;;;;30.67;17.60;;;;;;;;;;5092882;28;20269;-77
2022/12/03 13:42:37;;;;;;;27.47;18.20;;;;;;;;;;5088441;28;20329;-77
2022/12/03 13:43:55;;;;;;;29.87;17.20;;;;;;;;;;5087839;28;20183;-77
2022/12/03 13:46:21;;;;;;;29.37;17.80;;;;;;;;;;5084259;28;20180;-77
2022/12/03 13:48:48;;;;;;;31.57;18.40;;;;;;;;;;5076162;28;20234;-77
2022/12/03 13:51:19;;;;;;;29.97;17.83;;;;;;;;;;5107506;28;20180;-77
2022/12/03 13:53:45;;;;;;;28.80;17.60;;;;;;;;;;5087660;28;20209;-77
2022/12/03 13:56:26;;;;;;;29.57;17.97;;;;;;;;;;5091288;28;20177;-77
2022/12/03 13:58:53;;;;;;;32.47;19.37;;;;;;;;;;5082984;28;20675;-77
2022/12/03 14:01:23;;;;;;;30.20;19.10;;;;;;;;;;5087813;28;20223;-77
2022/12/03 14:03:50;;;;;;;32.97;18.73;;;;;;;;;;5084881;28;20817;-77
2022/12/03 14:06:17;;;;;;;30.37;18.93;;;;;;;;;;5090581;28;20202;-77
2022/12/03 14:08:44;;;;;;;28.70;17.67;;;;;;;;;;5089693;28;20216;-78
2022/12/03 14:12:24;;;;;;;27.30;16.50;;;;;;;;;;5084747;28;20255;-78
2022/12/03 14:14:00;;;;;;;31.23;19.20;;;;;;;;;;5080063;28;20180;-77
2022/12/03 14:16:26;;;;;;;28.37;17.57;;;;;;;;;;5078085;28;20675;-77
2022/12/03 14:18:52;;;;;;;32.17;19.07;;;;;;;;;;5079823;28;20204;-77
2022/12/03 14:21:18;;;;;;;29.47;18.33;;;;;;;;;;5081228;28;20185;-77
2022/12/03 14:23:44;;;;;;;29.43;17.77;;;;;;;;;;5080510;28;20672;-77
2022/12/03 14:26:10;;;;;;;29.33;17.23;;;;;;;;;;5084526;28;20309;-77
2022/12/03 14:28:36;;;;;;;30.17;18.37;;;;;;;;;;5089820;28;20285;-77
2022/12/03 14:31:02;;;;;;;28.20;17.07;;;;;;;;;;5069070;28;20671;-77
2022/12/03 14:33:28;;;;;;;28.93;17.47;;;;;;;;;;5099328;28;20173;-77
2022/12/03 14:35:55;;;;;;;29.57;18.00;;;;;;;;;;5095170;28;20176;-77
2022/12/03 14:38:21;;;;;;;30.67;17.93;;;;;;;;;;5087282;28;20254;-77
2022/12/03 14:40:47;;;;;;;27.43;17.20;;;;;;;;;;5092337;28;20291;-77
2022/12/03 14:43:13;;;;;;;27.67;16.33;;;;;;;;;;5082689;28;20183;-77